Sign-in with your pilot id or email, or register

ICAO: NWWW Name / Country: La Tontouta Nlle-Caledonie / New Caledonia
Latitude: -22.0146 Longitude: 166.213
Total Arrivals:
Strict Standards: Non-static method AirportData::getarrflights() should not be called statically, assuming $this from incompatible context in /var/www/customers/vh-7192/web/home/phpvms/core/templates/airport_info.tpl on line 18
2
Total Departures:
Strict Standards: Non-static method AirportData::getdeptflights() should not be called statically, assuming $this from incompatible context in /var/www/customers/vh-7192/web/home/phpvms/core/templates/airport_info.tpl on line 21
2
Latest Arrival: MTA5PM (NZAA-NWWW) Tibor Berces Latest Departure: MTA5PM (NWWW-YBCS) Tibor Berces
Metar: NWWW 270930Z AUTO 15003KT 9999 OVC050 21/21 Q1018 TEMPO 2500 RA BR BKN004 BKN006 SCT018TCU
More info

Charts for NWWW


NOTAM


Warning: file_get_contents(http://api.vateud.net/notams/NWWW.json): failed to open stream: Redirection limit reached, aborting in /var/www/customers/vh-7192/web/home/phpvms/core/common/NOTAMSData.class.php on line 18

Warning: Invalid argument supplied for foreach() in /var/www/customers/vh-7192/web/home/phpvms/core/common/NOTAMSData.class.php on line 22

La Tontouta Nlle-Caledonie